createdAt,value
2023-01-17T00:00:58.516Z,39.90
2023-01-17T00:06:32.641Z,48.50
2023-01-17T00:11:35.101Z,38.10
2023-01-17T00:16:37.841Z,49.50
2023-01-17T00:22:06.304Z,41.40
2023-01-17T00:27:14.764Z,44.70
2023-01-17T00:32:17.791Z,48.10
2023-01-17T00:37:22.373Z,48.00
2023-01-17T00:42:24.894Z,43.20
2023-01-17T00:47:45.649Z,41.90
2023-01-17T00:53:07.032Z,25.10
2023-01-17T00:58:29.137Z,34.50
2023-01-17T01:03:50.068Z,29.80
2023-01-17T01:09:10.928Z,29.60
2023-01-17T01:14:34.806Z,22.90
2023-01-17T01:19:56.300Z,20.60
2023-01-17T01:25:23.788Z,13.90
2023-01-17T01:30:45.424Z,12.60
2023-01-17T01:35:55.407Z,10.60
2023-01-17T01:40:57.902Z,12.10
2023-01-17T01:46:00.204Z,7.30
2023-01-17T01:51:09.904Z,6.20
2023-01-17T01:56:15.607Z,6.40
2023-01-17T02:01:19.508Z,5.10
2023-01-17T02:06:34.140Z,3.80
2023-01-17T02:11:39.367Z,5.10
2023-01-17T02:17:03.919Z,3.90
2023-01-17T02:22:48.524Z,4.40
2023-01-17T02:27:54.641Z,3.10
2023-01-17T02:33:17.729Z,4.80
2023-01-17T02:38:34.000Z,4.20
2023-01-17T02:43:37.663Z,5.80
2023-01-17T02:48:40.162Z,4.80
2023-01-17T02:53:48.995Z,6.50
2023-01-17T02:59:14.172Z,5.50
2023-01-17T03:04:42.130Z,4.00
2023-01-17T03:09:47.088Z,4.10
2023-01-17T03:14:53.608Z,4.90
2023-01-17T03:19:56.720Z,4.10
2023-01-17T03:25:16.366Z,4.00
2023-01-17T03:30:23.121Z,4.40
2023-01-17T03:35:28.413Z,2.80
2023-01-17T03:40:37.847Z,4.20
2023-01-17T03:45:40.227Z,4.70
2023-01-17T03:50:43.685Z,4.10
2023-01-17T03:55:46.609Z,6.00
2023-01-17T04:00:49.806Z,6.20
2023-01-17T04:05:53.301Z,5.80
2023-01-17T04:10:55.316Z,7.10
2023-01-17T04:15:59.977Z,5.00
2023-01-17T04:21:02.612Z,7.40
2023-01-17T04:26:05.450Z,8.60
2023-01-17T04:31:07.874Z,8.90
2023-01-17T04:36:10.488Z,10.60
2023-01-17T04:41:12.556Z,9.30
2023-01-17T04:46:15.128Z,8.10
2023-01-17T04:51:18.228Z,9.70
2023-01-17T04:56:20.228Z,12.40
2023-01-17T05:01:22.708Z,14.80
2023-01-17T05:06:25.655Z,25.30
2023-01-17T05:11:30.446Z,26.30
2023-01-17T05:16:32.784Z,23.00
2023-01-17T05:21:35.298Z,23.10
2023-01-17T05:26:38.204Z,19.30
2023-01-17T05:31:40.725Z,23.50
2023-01-17T05:36:42.829Z,24.80
2023-01-17T05:41:45.758Z,24.50
2023-01-17T05:46:49.783Z,16.40
2023-01-17T05:51:54.831Z,14.60
2023-01-17T05:56:57.070Z,11.30
2023-01-17T06:01:59.045Z,15.90
2023-01-17T06:07:03.356Z,16.00
2023-01-17T06:12:06.342Z,21.10
2023-01-17T06:17:08.264Z,19.00
2023-01-17T06:22:10.399Z,19.80
2023-01-17T06:27:15.359Z,32.60
2023-01-17T06:32:17.386Z,38.50
2023-01-17T06:37:19.790Z,30.40
2023-01-17T06:42:22.245Z,26.30
2023-01-17T06:47:24.436Z,25.00
2023-01-17T06:52:30.256Z,30.20
2023-01-17T06:57:33.093Z,24.10
2023-01-17T07:02:37.110Z,22.50
2023-01-17T07:07:39.220Z,18.00
2023-01-17T07:12:46.962Z,20.20
2023-01-17T07:17:49.487Z,12.90
2023-01-17T07:22:52.584Z,15.80
2023-01-17T07:27:57.600Z,11.90
2023-01-17T07:33:00.392Z,13.00
2023-01-17T07:38:03.741Z,16.80
2023-01-17T07:43:17.308Z,14.20
2023-01-17T07:48:21.996Z,14.00
2023-01-17T07:53:30.779Z,15.30
2023-01-17T07:58:34.882Z,13.90
2023-01-17T08:03:40.666Z,15.10
2023-01-17T08:08:43.260Z,13.10
2023-01-17T08:13:48.396Z,11.40
2023-01-17T08:18:56.464Z,13.10
2023-01-17T08:24:15.411Z,12.20
2023-01-17T08:29:19.244Z,17.80
2023-01-17T08:34:23.843Z,11.80
2023-01-17T08:39:31.633Z,11.40
2023-01-17T08:44:34.704Z,13.60
2023-01-17T08:49:44.943Z,6.60
2023-01-17T08:54:53.865Z,10.30
2023-01-17T09:00:14.765Z,9.30
2023-01-17T09:05:17.029Z,10.20
2023-01-17T09:10:19.698Z,9.80
2023-01-17T09:15:26.690Z,7.30
2023-01-17T09:20:30.890Z,11.70
2023-01-17T09:25:33.077Z,8.70
2023-01-17T09:30:38.035Z,8.20
2023-01-17T09:35:40.724Z,10.30
2023-01-17T09:40:47.396Z,9.40
2023-01-17T09:45:50.252Z,9.50
2023-01-17T09:51:04.492Z,8.20
2023-01-17T09:56:31.423Z,12.30
2023-01-17T10:02:31.839Z,10.90
2023-01-17T10:08:04.774Z,9.80
2023-01-17T10:13:27.748Z,14.20
2023-01-17T10:18:55.615Z,7.60
2023-01-17T10:24:28.455Z,4.70
2023-01-17T10:29:36.987Z,8.20
2023-01-17T10:34:58.249Z,6.30
2023-01-17T10:40:38.471Z,5.40
2023-01-17T10:45:56.372Z,4.00
2023-01-17T10:51:43.092Z,7.00
2023-01-17T10:56:53.268Z,4.00
2023-01-17T11:01:55.973Z,4.50
2023-01-17T11:07:30.745Z,3.90
2023-01-17T11:12:45.517Z,7.60
2023-01-17T11:17:53.388Z,7.70
2023-01-17T11:23:05.948Z,6.00
2023-01-17T11:28:20.252Z,5.50
2023-01-17T11:34:13.970Z,5.10
2023-01-17T11:39:27.889Z,5.60
2023-01-17T11:44:35.095Z,3.90
2023-01-17T11:49:38.982Z,4.40
2023-01-17T11:54:47.962Z,3.60
2023-01-17T12:00:38.297Z,6.10
2023-01-17T12:05:43.193Z,7.30
2023-01-17T12:11:17.098Z,2.60
2023-01-17T12:16:53.538Z,5.70
2023-01-17T12:22:04.138Z,5.40
2023-01-17T12:27:34.604Z,5.60
2023-01-17T12:32:59.057Z,6.70
2023-01-17T12:38:09.166Z,5.80
2023-01-17T12:43:23.033Z,4.10
2023-01-17T12:48:30.882Z,8.30
2023-01-17T12:53:59.927Z,5.50
2023-01-17T12:59:27.964Z,3.70
2023-01-17T13:04:46.914Z,4.90
2023-01-17T13:10:26.957Z,8.60
2023-01-17T13:15:39.249Z,4.60
2023-01-17T13:21:05.282Z,4.00
2023-01-17T13:26:20.838Z,4.40
2023-01-17T13:31:50.874Z,5.00
2023-01-17T13:37:23.236Z,6.90
2023-01-17T13:42:42.495Z,4.90
2023-01-17T13:47:45.495Z,7.40
2023-01-17T13:52:50.797Z,4.50
2023-01-17T13:57:53.196Z,6.80
2023-01-17T14:02:55.676Z,3.40
2023-01-17T14:08:02.236Z,5.00
2023-01-17T14:13:06.870Z,4.00
2023-01-17T14:18:34.066Z,4.50
2023-01-17T14:24:15.978Z,9.50
2023-01-17T14:29:58.975Z,5.50
2023-01-17T14:35:02.273Z,4.90
2023-01-17T14:40:18.223Z,4.20
2023-01-17T14:45:26.851Z,5.50
2023-01-17T14:50:35.974Z,3.70
2023-01-17T14:55:39.080Z,5.00
2023-01-17T15:00:45.175Z,5.40
2023-01-17T15:05:52.250Z,6.30
2023-01-17T15:11:05.445Z,7.00
2023-01-17T15:16:24.406Z,4.60
2023-01-17T15:21:29.720Z,5.40
2023-01-17T15:26:34.767Z,9.30
2023-01-17T15:31:48.108Z,10.20
2023-01-17T15:36:51.166Z,12.10
2023-01-17T15:41:59.332Z,11.30
2023-01-17T15:47:02.496Z,15.20
2023-01-17T15:52:10.324Z,21.00
2023-01-17T15:57:24.765Z,19.10
2023-01-17T16:02:29.633Z,22.40
2023-01-17T16:07:36.207Z,17.60
2023-01-17T16:12:39.298Z,20.40
2023-01-17T16:17:48.052Z,20.60
2023-01-17T16:22:50.861Z,18.90
2023-01-17T16:27:53.284Z,19.40
2023-01-17T16:33:00.066Z,24.90
2023-01-17T16:38:15.532Z,42.30
2023-01-17T16:43:18.931Z,39.70
2023-01-17T16:48:21.960Z,51.60
2023-01-17T16:53:26.976Z,47.00
2023-01-17T16:58:28.826Z,57.50
2023-01-17T17:03:30.906Z,69.70
2023-01-17T17:08:37.106Z,70.10
2023-01-17T17:13:40.672Z,90.40
2023-01-17T17:18:44.883Z,92.90
2023-01-17T17:23:50.911Z,77.70
2023-01-17T17:28:54.152Z,83.80
2023-01-17T17:34:00.929Z,66.50
2023-01-17T17:39:04.790Z,62.10
2023-01-17T17:44:06.782Z,70.70
2023-01-17T17:49:09.199Z,58.20
2023-01-17T17:54:13.280Z,46.90
2023-01-17T17:59:18.497Z,44.20
2023-01-17T18:04:21.714Z,40.70
2023-01-17T18:09:24.273Z,37.40
2023-01-17T18:14:26.710Z,41.90
2023-01-17T18:19:28.812Z,47.20
2023-01-17T18:24:31.114Z,194.40
2023-01-17T18:29:33.253Z,83.80
2023-01-17T18:34:35.846Z,68.50
2023-01-17T18:39:37.871Z,70.80
2023-01-17T18:44:39.968Z,87.70
2023-01-17T18:49:43.047Z,96.70
2023-01-17T18:54:46.131Z,94.20
2023-01-17T18:59:48.283Z,128.10
2023-01-17T19:04:50.095Z,146.30
2023-01-17T19:09:51.958Z,140.20
2023-01-17T19:14:53.860Z,119.30
2023-01-17T19:19:57.115Z,127.70
2023-01-17T19:24:59.016Z,91.90
2023-01-17T19:30:01.566Z,102.40
2023-01-17T19:35:03.623Z,144.60
2023-01-17T19:40:08.406Z,154.10
2023-01-17T19:45:14.101Z,123.60
2023-01-17T19:50:18.698Z,104.20
2023-01-17T19:55:25.648Z,80.20
2023-01-17T20:00:30.372Z,85.60
2023-01-17T20:05:34.242Z,99.70
2023-01-17T20:10:36.042Z,75.30
2023-01-17T20:15:37.843Z,91.30
2023-01-17T20:20:56.314Z,83.10
2023-01-17T20:25:59.221Z,89.90
2023-01-17T20:31:10.309Z,99.90
2023-01-17T20:36:16.094Z,84.40
2023-01-17T20:41:25.714Z,98.60
2023-01-17T20:46:33.215Z,88.80
2023-01-17T20:51:37.685Z,84.70
2023-01-17T20:56:39.473Z,94.70
2023-01-17T21:01:43.790Z,96.10
2023-01-17T21:06:46.276Z,112.00
2023-01-17T21:11:48.939Z,105.60
2023-01-17T21:16:50.884Z,104.50
2023-01-17T21:21:53.083Z,73.80
2023-01-17T21:26:55.140Z,61.30
2023-01-17T21:31:57.400Z,79.40
2023-01-17T21:36:59.366Z,68.70
2023-01-17T21:42:01.420Z,58.40
2023-01-17T21:47:03.772Z,76.50
2023-01-17T21:52:05.630Z,57.80
2023-01-17T21:57:26.563Z,57.00
2023-01-17T22:02:28.451Z,58.80
2023-01-17T22:07:30.959Z,57.80
2023-01-17T22:12:33.152Z,69.10
2023-01-17T22:17:38.312Z,70.10
2023-01-17T22:22:40.259Z,72.20
2023-01-17T22:27:42.074Z,72.90
2023-01-17T22:32:43.919Z,53.20
2023-01-17T22:37:45.835Z,64.30
2023-01-17T22:42:48.131Z,63.70
2023-01-17T22:47:50.299Z,70.50
2023-01-17T22:52:52.137Z,64.00
2023-01-17T22:57:54.669Z,66.10
2023-01-17T23:02:56.914Z,53.80
2023-01-17T23:08:02.075Z,58.80
2023-01-17T23:13:04.303Z,74.00
2023-01-17T23:18:24.824Z,68.40
2023-01-17T23:23:26.940Z,63.60
2023-01-17T23:28:28.938Z,74.60
2023-01-17T23:33:31.025Z,78.50
2023-01-17T23:38:37.937Z,76.10
2023-01-17T23:43:40.182Z,78.00
2023-01-17T23:48:41.914Z,98.80
2023-01-17T23:53:43.830Z,83.40
2023-01-17T23:58:45.700Z,85.40
